Grey Forest, Texas
Current Conditions -  °F | °C
As of 11:15 AM on Wednesday 26 Nov 2014 (Local Time) from K5C1 Reporting Station
Clear Clear  
Wind Chill: 66°   Ceiling: Unl
Heat Index: 66°   Visibility: 10mi
Dew Point: 28°   Wind: 10mph
Humidity: 24%   Direction: 250°WSW
Pressure: 30.24"   Gusts: NA
Location:  29.6143°N, 98.747°W
Report Text: K5C1 261715Z AUTO 25009KT 220V280 10SM CLR 19/M02 A3024 RMK AO1
Loading
Personal Weather Stations






























Interactive Weather Map New forecast layout! Learn more

10-Day Weather Forecast

Advertisements
Track Severe Weather on mobile